sensor_id;sensor_type;location;lat;lon;timestamp;P1;durP1;ratioP1;P2;durP2;ratioP2
19205;SDS011;59358;52.134;5.596;2023-11-22T00:00:50;48.45;;;23.50;;
19205;SDS011;59358;52.134;5.596;2023-11-22T00:03:17;51.75;;;23.63;;
19205;SDS011;59358;52.134;5.596;2023-11-22T00:05:44;52.55;;;25.27;;
19205;SDS011;59358;52.134;5.596;2023-11-22T00:08:11;48.50;;;25.15;;
19205;SDS011;59358;52.134;5.596;2023-11-22T00:10:38;48.72;;;25.08;;
19205;SDS011;59358;52.134;5.596;2023-11-22T00:13:06;52.72;;;25.67;;
19205;SDS011;59358;52.134;5.596;2023-11-22T00:15:33;52.13;;;27.33;;
19205;SDS011;59358;52.134;5.596;2023-11-22T00:18:01;50.72;;;25.58;;
19205;SDS011;59358;52.134;5.596;2023-11-22T00:20:28;52.00;;;23.75;;
19205;SDS011;59358;52.134;5.596;2023-11-22T00:22:55;47.10;;;23.98;;
19205;SDS011;59358;52.134;5.596;2023-11-22T00:25:22;56.58;;;26.33;;
19205;SDS011;59358;52.134;5.596;2023-11-22T00:27:49;56.58;;;25.42;;
19205;SDS011;59358;52.134;5.596;2023-11-22T00:30:17;50.38;;;25.45;;
19205;SDS011;59358;52.134;5.596;2023-11-22T00:32:45;53.33;;;25.50;;
19205;SDS011;59358;52.134;5.596;2023-11-22T00:35:12;47.63;;;24.70;;
19205;SDS011;59358;52.134;5.596;2023-11-22T00:37:38;52.22;;;24.67;;
19205;SDS011;59358;52.134;5.596;2023-11-22T00:40:06;52.83;;;25.52;;
19205;SDS011;59358;52.134;5.596;2023-11-22T00:42:36;48.58;;;25.23;;
19205;SDS011;59358;52.134;5.596;2023-11-22T00:45:05;43.38;;;22.08;;
19205;SDS011;59358;52.134;5.596;2023-11-22T00:47:33;49.42;;;23.67;;
19205;SDS011;59358;52.134;5.596;2023-11-22T00:50:00;48.17;;;23.27;;
19205;SDS011;59358;52.134;5.596;2023-11-22T00:52:28;48.92;;;24.02;;
19205;SDS011;59358;52.134;5.596;2023-11-22T00:54:55;58.78;;;26.15;;
19205;SDS011;59358;52.134;5.596;2023-11-22T00:57:22;55.40;;;24.88;;
19205;SDS011;59358;52.134;5.596;2023-11-22T00:59:49;51.80;;;25.00;;
19205;SDS011;59358;52.134;5.596;2023-11-22T01:02:16;49.88;;;24.60;;
19205;SDS011;59358;52.134;5.596;2023-11-22T01:04:44;46.10;;;21.88;;
19205;SDS011;59358;52.134;5.596;2023-11-22T01:07:10;45.28;;;22.35;;
19205;SDS011;59358;52.134;5.596;2023-11-22T01:09:37;45.50;;;21.73;;
19205;SDS011;59358;52.134;5.596;2023-11-22T01:12:05;45.83;;;22.95;;
19205;SDS011;59358;52.134;5.596;2023-11-22T01:14:34;45.25;;;21.65;;
19205;SDS011;59358;52.134;5.596;2023-11-22T01:17:01;52.97;;;24.80;;
19205;SDS011;59358;52.134;5.596;2023-11-22T01:19:28;57.05;;;24.90;;
19205;SDS011;59358;52.134;5.596;2023-11-22T01:21:56;54.75;;;24.88;;
19205;SDS011;59358;52.134;5.596;2023-11-22T01:24:23;56.20;;;25.20;;
19205;SDS011;59358;52.134;5.596;2023-11-22T01:26:51;59.28;;;24.65;;
19205;SDS011;59358;52.134;5.596;2023-11-22T01:29:18;56.53;;;24.95;;
19205;SDS011;59358;52.134;5.596;2023-11-22T01:31:45;60.53;;;25.90;;
19205;SDS011;59358;52.134;5.596;2023-11-22T01:34:12;58.85;;;26.02;;
19205;SDS011;59358;52.134;5.596;2023-11-22T01:36:41;59.58;;;25.17;;
19205;SDS011;59358;52.134;5.596;2023-11-22T01:39:11;53.88;;;25.17;;
19205;SDS011;59358;52.134;5.596;2023-11-22T01:41:39;60.90;;;25.73;;
19205;SDS011;59358;52.134;5.596;2023-11-22T01:44:07;61.75;;;26.30;;
19205;SDS011;59358;52.134;5.596;2023-11-22T01:46:34;62.60;;;26.33;;
19205;SDS011;59358;52.134;5.596;2023-11-22T01:49:01;70.07;;;26.05;;
19205;SDS011;59358;52.134;5.596;2023-11-22T01:51:28;62.75;;;25.55;;
19205;SDS011;59358;52.134;5.596;2023-11-22T01:53:55;65.43;;;28.40;;
19205;SDS011;59358;52.134;5.596;2023-11-22T01:56:25;67.50;;;27.40;;
19205;SDS011;59358;52.134;5.596;2023-11-22T01:58:52;72.18;;;28.95;;
19205;SDS011;59358;52.134;5.596;2023-11-22T02:01:20;74.78;;;29.45;;
19205;SDS011;59358;52.134;5.596;2023-11-22T02:03:47;70.30;;;29.08;;
19205;SDS011;59358;52.134;5.596;2023-11-22T02:06:15;72.38;;;29.73;;
19205;SDS011;59358;52.134;5.596;2023-11-22T02:08:42;73.10;;;28.42;;
19205;SDS011;59358;52.134;5.596;2023-11-22T02:11:09;80.03;;;29.50;;
19205;SDS011;59358;52.134;5.596;2023-11-22T02:13:37;68.35;;;28.60;;
19205;SDS011;59358;52.134;5.596;2023-11-22T02:16:04;73.53;;;29.25;;
19205;SDS011;59358;52.134;5.596;2023-11-22T02:18:31;73.22;;;27.75;;
19205;SDS011;59358;52.134;5.596;2023-11-22T02:20:59;81.00;;;30.40;;
19205;SDS011;59358;52.134;5.596;2023-11-22T02:23:28;78.18;;;28.13;;
19205;SDS011;59358;52.134;5.596;2023-11-22T02:25:55;73.40;;;28.15;;
19205;SDS011;59358;52.134;5.596;2023-11-22T02:28:21;65.32;;;26.75;;
19205;SDS011;59358;52.134;5.596;2023-11-22T02:30:48;75.68;;;27.33;;
19205;SDS011;59358;52.134;5.596;2023-11-22T02:33:15;71.65;;;26.70;;
19205;SDS011;59358;52.134;5.596;2023-11-22T02:35:42;67.82;;;26.85;;
19205;SDS011;59358;52.134;5.596;2023-11-22T02:38:09;72.80;;;26.80;;
19205;SDS011;59358;52.134;5.596;2023-11-22T02:40:37;79.20;;;27.85;;
19205;SDS011;59358;52.134;5.596;2023-11-22T02:43:04;74.82;;;28.60;;
19205;SDS011;59358;52.134;5.596;2023-11-22T02:45:34;78.43;;;27.88;;
19205;SDS011;59358;52.134;5.596;2023-11-22T02:48:01;71.07;;;26.75;;
19205;SDS011;59358;52.134;5.596;2023-11-22T02:50:28;68.40;;;26.92;;
19205;SDS011;59358;52.134;5.596;2023-11-22T02:52:56;73.53;;;28.60;;
19205;SDS011;59358;52.134;5.596;2023-11-22T02:55:23;68.97;;;29.00;;
19205;SDS011;59358;52.134;5.596;2023-11-22T02:57:51;74.60;;;28.25;;
19205;SDS011;59358;52.134;5.596;2023-11-22T03:00:18;70.53;;;26.40;;
19205;SDS011;59358;52.134;5.596;2023-11-22T03:02:45;75.95;;;29.35;;
19205;SDS011;59358;52.134;5.596;2023-11-22T03:05:12;77.03;;;26.85;;
19205;SDS011;59358;52.134;5.596;2023-11-22T03:07:40;81.30;;;28.10;;
19205;SDS011;59358;52.134;5.596;2023-11-22T03:10:07;77.85;;;28.05;;
19205;SDS011;59358;52.134;5.596;2023-11-22T03:12:35;71.82;;;26.48;;
19205;SDS011;59358;52.134;5.596;2023-11-22T03:15:04;74.93;;;26.90;;
19205;SDS011;59358;52.134;5.596;2023-11-22T03:17:31;74.60;;;28.42;;
19205;SDS011;59358;52.134;5.596;2023-11-22T03:19:59;77.57;;;27.70;;
19205;SDS011;59358;52.134;5.596;2023-11-22T03:22:26;81.35;;;28.50;;
19205;SDS011;59358;52.134;5.596;2023-11-22T03:24:55;73.68;;;27.65;;
19205;SDS011;59358;52.134;5.596;2023-11-22T03:27:23;81.78;;;28.50;;
19205;SDS011;59358;52.134;5.596;2023-11-22T03:29:51;74.65;;;27.17;;
19205;SDS011;59358;52.134;5.596;2023-11-22T03:32:19;79.88;;;27.60;;
19205;SDS011;59358;52.134;5.596;2023-11-22T03:34:46;79.25;;;28.70;;
19205;SDS011;59358;52.134;5.596;2023-11-22T03:37:13;79.13;;;28.73;;
19205;SDS011;59358;52.134;5.596;2023-11-22T03:39:40;85.63;;;29.55;;
19205;SDS011;59358;52.134;5.596;2023-11-22T03:42:13;90.88;;;28.67;;
19205;SDS011;59358;52.134;5.596;2023-11-22T03:44:41;83.65;;;28.75;;
19205;SDS011;59358;52.134;5.596;2023-11-22T03:47:09;89.80;;;31.15;;
19205;SDS011;59358;52.134;5.596;2023-11-22T03:49:38;81.68;;;28.88;;
19205;SDS011;59358;52.134;5.596;2023-11-22T03:52:05;77.90;;;30.48;;
19205;SDS011;59358;52.134;5.596;2023-11-22T03:54:33;94.20;;;38.17;;
19205;SDS011;59358;52.134;5.596;2023-11-22T03:57:00;91.93;;;39.92;;
19205;SDS011;59358;52.134;5.596;2023-11-22T03:59:27;93.25;;;37.67;;
19205;SDS011;59358;52.134;5.596;2023-11-22T04:01:53;84.85;;;31.35;;
19205;SDS011;59358;52.134;5.596;2023-11-22T04:04:20;89.80;;;30.23;;
19205;SDS011;59358;52.134;5.596;2023-11-22T04:06:48;84.60;;;28.42;;
19205;SDS011;59358;52.134;5.596;2023-11-22T04:09:17;81.38;;;27.60;;
19205;SDS011;59358;52.134;5.596;2023-11-22T04:11:45;83.68;;;26.42;;
19205;SDS011;59358;52.134;5.596;2023-11-22T04:14:11;86.57;;;27.38;;
19205;SDS011;59358;52.134;5.596;2023-11-22T04:16:38;71.53;;;26.83;;
19205;SDS011;59358;52.134;5.596;2023-11-22T04:19:05;75.03;;;27.15;;
19205;SDS011;59358;52.134;5.596;2023-11-22T04:21:32;72.65;;;27.00;;
19205;SDS011;59358;52.134;5.596;2023-11-22T04:24:00;91.95;;;28.48;;
19205;SDS011;59358;52.134;5.596;2023-11-22T04:26:27;83.22;;;26.08;;
19205;SDS011;59358;52.134;5.596;2023-11-22T04:28:54;91.03;;;27.73;;
19205;SDS011;59358;52.134;5.596;2023-11-22T04:31:20;67.90;;;23.73;;
19205;SDS011;59358;52.134;5.596;2023-11-22T04:33:47;79.30;;;26.45;;
19205;SDS011;59358;52.134;5.596;2023-11-22T04:36:15;76.90;;;24.25;;
19205;SDS011;59358;52.134;5.596;2023-11-22T04:38:42;80.10;;;24.98;;
19205;SDS011;59358;52.134;5.596;2023-11-22T04:41:10;65.47;;;23.02;;
19205;SDS011;59358;52.134;5.596;2023-11-22T04:43:37;75.57;;;23.88;;
19205;SDS011;59358;52.134;5.596;2023-11-22T04:46:04;78.97;;;24.38;;
19205;SDS011;59358;52.134;5.596;2023-11-22T04:48:31;76.38;;;24.27;;
19205;SDS011;59358;52.134;5.596;2023-11-22T04:50:57;69.85;;;24.63;;
19205;SDS011;59358;52.134;5.596;2023-11-22T04:53:24;72.45;;;24.83;;
19205;SDS011;59358;52.134;5.596;2023-11-22T04:55:52;78.65;;;25.00;;
19205;SDS011;59358;52.134;5.596;2023-11-22T04:58:20;75.63;;;24.85;;
19205;SDS011;59358;52.134;5.596;2023-11-22T05:00:47;74.50;;;23.95;;
19205;SDS011;59358;52.134;5.596;2023-11-22T05:03:14;71.43;;;23.17;;
19205;SDS011;59358;52.134;5.596;2023-11-22T05:05:41;72.68;;;26.15;;
19205;SDS011;59358;52.134;5.596;2023-11-22T05:08:08;80.32;;;25.80;;
19205;SDS011;59358;52.134;5.596;2023-11-22T05:10:35;72.72;;;24.20;;
19205;SDS011;59358;52.134;5.596;2023-11-22T05:13:01;67.88;;;23.00;;
19205;SDS011;59358;52.134;5.596;2023-11-22T05:15:30;69.13;;;24.35;;
19205;SDS011;59358;52.134;5.596;2023-11-22T05:17:57;66.57;;;24.80;;
19205;SDS011;59358;52.134;5.596;2023-11-22T05:20:24;71.85;;;24.27;;
19205;SDS011;59358;52.134;5.596;2023-11-22T05:22:50;74.15;;;25.67;;
19205;SDS011;59358;52.134;5.596;2023-11-22T05:25:17;69.65;;;25.70;;
19205;SDS011;59358;52.134;5.596;2023-11-22T05:27:44;82.85;;;28.35;;
19205;SDS011;59358;52.134;5.596;2023-11-22T05:30:11;88.10;;;28.80;;
19205;SDS011;59358;52.134;5.596;2023-11-22T05:32:41;77.75;;;27.80;;
19205;SDS011;59358;52.134;5.596;2023-11-22T05:35:08;92.30;;;29.02;;
19205;SDS011;59358;52.134;5.596;2023-11-22T05:37:35;88.47;;;28.77;;
19205;SDS011;59358;52.134;5.596;2023-11-22T05:40:03;86.18;;;28.73;;
19205;SDS011;59358;52.134;5.596;2023-11-22T05:42:30;90.65;;;29.52;;
19205;SDS011;59358;52.134;5.596;2023-11-22T05:44:57;99.35;;;30.60;;
19205;SDS011;59358;52.134;5.596;2023-11-22T05:47:24;83.93;;;30.02;;
19205;SDS011;59358;52.134;5.596;2023-11-22T05:49:52;88.60;;;29.25;;
19205;SDS011;59358;52.134;5.596;2023-11-22T05:52:19;91.45;;;28.98;;
19205;SDS011;59358;52.134;5.596;2023-11-22T05:54:48;96.40;;;28.98;;
19205;SDS011;59358;52.134;5.596;2023-11-22T05:57:15;82.13;;;27.77;;
19205;SDS011;59358;52.134;5.596;2023-11-22T05:59:43;86.78;;;28.77;;
19205;SDS011;59358;52.134;5.596;2023-11-22T06:02:09;84.45;;;28.67;;
19205;SDS011;59358;52.134;5.596;2023-11-22T06:04:36;81.95;;;27.58;;
19205;SDS011;59358;52.134;5.596;2023-11-22T06:07:04;100.47;;;29.08;;
19205;SDS011;59358;52.134;5.596;2023-11-22T06:09:31;84.32;;;27.55;;
19205;SDS011;59358;52.134;5.596;2023-11-22T06:11:59;77.90;;;26.90;;
19205;SDS011;59358;52.134;5.596;2023-11-22T06:14:25;90.50;;;29.10;;
19205;SDS011;59358;52.134;5.596;2023-11-22T06:16:52;83.70;;;27.92;;
19205;SDS011;59358;52.134;5.596;2023-11-22T06:19:19;82.82;;;28.65;;
19205;SDS011;59358;52.134;5.596;2023-11-22T06:21:46;88.30;;;28.77;;
19205;SDS011;59358;52.134;5.596;2023-11-22T06:24:14;85.90;;;26.90;;
19205;SDS011;59358;52.134;5.596;2023-11-22T06:26:42;81.30;;;28.95;;
19205;SDS011;59358;52.134;5.596;2023-11-22T06:29:11;85.90;;;28.88;;
19205;SDS011;59358;52.134;5.596;2023-11-22T06:31:37;91.72;;;29.33;;
19205;SDS011;59358;52.134;5.596;2023-11-22T06:34:05;76.50;;;26.33;;
19205;SDS011;59358;52.134;5.596;2023-11-22T06:36:32;84.03;;;28.70;;
19205;SDS011;59358;52.134;5.596;2023-11-22T06:38:58;102.63;;;30.52;;
19205;SDS011;59358;52.134;5.596;2023-11-22T06:41:27;84.18;;;28.45;;
19205;SDS011;59358;52.134;5.596;2023-11-22T06:43:54;96.95;;;31.08;;
19205;SDS011;59358;52.134;5.596;2023-11-22T06:46:21;87.72;;;31.17;;
19205;SDS011;59358;52.134;5.596;2023-11-22T06:48:48;103.20;;;31.95;;
19205;SDS011;59358;52.134;5.596;2023-11-22T06:51:14;87.57;;;32.10;;
19205;SDS011;59358;52.134;5.596;2023-11-22T06:53:43;87.53;;;33.13;;
19205;SDS011;59358;52.134;5.596;2023-11-22T06:56:10;102.38;;;35.13;;
19205;SDS011;59358;52.134;5.596;2023-11-22T06:58:38;100.05;;;35.83;;
19205;SDS011;59358;52.134;5.596;2023-11-22T07:01:05;94.57;;;35.00;;
19205;SDS011;59358;52.134;5.596;2023-11-22T07:03:35;96.38;;;35.58;;
19205;SDS011;59358;52.134;5.596;2023-11-22T07:06:02;118.78;;;37.63;;
19205;SDS011;59358;52.134;5.596;2023-11-22T07:08:29;112.55;;;34.88;;
19205;SDS011;59358;52.134;5.596;2023-11-22T07:10:56;109.32;;;35.20;;
19205;SDS011;59358;52.134;5.596;2023-11-22T07:13:23;107.72;;;35.95;;
19205;SDS011;59358;52.134;5.596;2023-11-22T07:15:53;94.00;;;34.47;;
19205;SDS011;59358;52.134;5.596;2023-11-22T07:18:20;115.88;;;37.42;;
19205;SDS011;59358;52.134;5.596;2023-11-22T07:20:49;99.78;;;35.42;;
19205;SDS011;59358;52.134;5.596;2023-11-22T07:23:18;116.35;;;36.15;;
19205;SDS011;59358;52.134;5.596;2023-11-22T07:25:46;117.05;;;36.15;;
19205;SDS011;59358;52.134;5.596;2023-11-22T07:28:13;106.85;;;34.03;;
19205;SDS011;59358;52.134;5.596;2023-11-22T07:30:40;107.57;;;34.60;;
19205;SDS011;59358;52.134;5.596;2023-11-22T07:33:08;107.05;;;34.03;;
19205;SDS011;59358;52.134;5.596;2023-11-22T07:35:36;94.38;;;32.55;;
19205;SDS011;59358;52.134;5.596;2023-11-22T07:38:04;105.63;;;35.70;;
19205;SDS011;59358;52.134;5.596;2023-11-22T07:40:33;109.28;;;35.15;;
19205;SDS011;59358;52.134;5.596;2023-11-22T07:43:01;105.30;;;34.92;;
19205;SDS011;59358;52.134;5.596;2023-11-22T07:45:30;96.68;;;32.17;;
19205;SDS011;59358;52.134;5.596;2023-11-22T07:47:56;92.85;;;33.55;;
19205;SDS011;59358;52.134;5.596;2023-11-22T07:50:26;95.88;;;34.40;;
19205;SDS011;59358;52.134;5.596;2023-11-22T07:52:52;106.82;;;33.85;;
19205;SDS011;59358;52.134;5.596;2023-11-22T07:55:19;99.38;;;31.63;;
19205;SDS011;59358;52.134;5.596;2023-11-22T07:57:47;85.70;;;30.83;;
19205;SDS011;59358;52.134;5.596;2023-11-22T08:00:15;89.10;;;30.83;;
19205;SDS011;59358;52.134;5.596;2023-11-22T08:02:45;98.53;;;31.63;;
19205;SDS011;59358;52.134;5.596;2023-11-22T08:05:12;111.35;;;33.65;;
19205;SDS011;59358;52.134;5.596;2023-11-22T08:07:41;94.03;;;31.17;;
19205;SDS011;59358;52.134;5.596;2023-11-22T08:10:11;89.43;;;30.80;;
19205;SDS011;59358;52.134;5.596;2023-11-22T08:12:44;91.05;;;30.52;;
19205;SDS011;59358;52.134;5.596;2023-11-22T08:15:12;111.05;;;34.75;;
19205;SDS011;59358;52.134;5.596;2023-11-22T08:17:39;90.93;;;32.25;;
19205;SDS011;59358;52.134;5.596;2023-11-22T08:20:06;96.38;;;32.13;;
19205;SDS011;59358;52.134;5.596;2023-11-22T08:22:37;90.78;;;30.98;;
19205;SDS011;59358;52.134;5.596;2023-11-22T08:25:06;108.65;;;33.58;;
19205;SDS011;59358;52.134;5.596;2023-11-22T08:27:37;98.35;;;33.13;;
19205;SDS011;59358;52.134;5.596;2023-11-22T08:30:05;88.68;;;31.52;;
19205;SDS011;59358;52.134;5.596;2023-11-22T08:32:38;105.38;;;34.53;;
19205;SDS011;59358;52.134;5.596;2023-11-22T08:35:06;98.55;;;34.20;;
19205;SDS011;59358;52.134;5.596;2023-11-22T08:37:33;93.50;;;32.30;;
19205;SDS011;59358;52.134;5.596;2023-11-22T08:40:03;95.30;;;34.65;;
19205;SDS011;59358;52.134;5.596;2023-11-22T08:42:33;105.15;;;35.97;;
19205;SDS011;59358;52.134;5.596;2023-11-22T08:45:00;113.85;;;38.03;;
19205;SDS011;59358;52.134;5.596;2023-11-22T08:47:28;117.40;;;42.28;;
19205;SDS011;59358;52.134;5.596;2023-11-22T08:49:55;120.90;;;38.88;;
19205;SDS011;59358;52.134;5.596;2023-11-22T08:52:23;123.82;;;38.65;;
19205;SDS011;59358;52.134;5.596;2023-11-22T08:54:50;116.18;;;37.70;;
19205;SDS011;59358;52.134;5.596;2023-11-22T08:57:19;113.03;;;36.72;;
19205;SDS011;59358;52.134;5.596;2023-11-22T08:59:45;100.03;;;34.50;;
19205;SDS011;59358;52.134;5.596;2023-11-22T09:02:12;106.00;;;35.90;;
19205;SDS011;59358;52.134;5.596;2023-11-22T09:04:40;95.03;;;35.20;;
19205;SDS011;59358;52.134;5.596;2023-11-22T09:07:07;119.13;;;37.22;;
19205;SDS011;59358;52.134;5.596;2023-11-22T09:09:35;116.40;;;37.75;;
19205;SDS011;59358;52.134;5.596;2023-11-22T09:12:02;108.10;;;38.38;;
19205;SDS011;59358;52.134;5.596;2023-11-22T09:14:38;124.93;;;40.60;;
19205;SDS011;59358;52.134;5.596;2023-11-22T09:17:06;121.20;;;38.58;;
19205;SDS011;59358;52.134;5.596;2023-11-22T09:19:34;113.82;;;38.47;;
19205;SDS011;59358;52.134;5.596;2023-11-22T09:22:02;97.05;;;35.78;;
19205;SDS011;59358;52.134;5.596;2023-11-22T09:24:31;117.18;;;37.47;;
19205;SDS011;59358;52.134;5.596;2023-11-22T09:26:58;107.25;;;37.63;;
19205;SDS011;59358;52.134;5.596;2023-11-22T09:29:25;98.88;;;35.53;;
19205;SDS011;59358;52.134;5.596;2023-11-22T09:31:54;113.28;;;39.75;;
19205;SDS011;59358;52.134;5.596;2023-11-22T09:34:21;106.60;;;36.90;;
19205;SDS011;59358;52.134;5.596;2023-11-22T09:36:48;112.72;;;39.35;;
19205;SDS011;59358;52.134;5.596;2023-11-22T09:39:15;102.68;;;37.08;;
19205;SDS011;59358;52.134;5.596;2023-11-22T09:41:46;105.03;;;38.85;;
19205;SDS011;59358;52.134;5.596;2023-11-22T09:44:13;98.97;;;38.03;;
19205;SDS011;59358;52.134;5.596;2023-11-22T09:46:41;109.10;;;37.75;;
19205;SDS011;59358;52.134;5.596;2023-11-22T09:49:10;99.20;;;37.65;;
19205;SDS011;59358;52.134;5.596;2023-11-22T09:51:43;95.32;;;35.90;;
19205;SDS011;59358;52.134;5.596;2023-11-22T09:54:11;86.30;;;35.30;;
19205;SDS011;59358;52.134;5.596;2023-11-22T09:56:40;87.53;;;36.53;;
19205;SDS011;59358;52.134;5.596;2023-11-22T09:59:15;76.68;;;34.17;;
19205;SDS011;59358;52.134;5.596;2023-11-22T10:01:43;73.75;;;33.15;;
19205;SDS011;59358;52.134;5.596;2023-11-22T10:04:12;74.30;;;34.85;;
19205;SDS011;59358;52.134;5.596;2023-11-22T10:06:38;101.82;;;41.53;;
19205;SDS011;59358;52.134;5.596;2023-11-22T10:09:06;83.32;;;36.97;;
19205;SDS011;59358;52.134;5.596;2023-11-22T10:11:33;66.28;;;32.83;;
19205;SDS011;59358;52.134;5.596;2023-11-22T10:14:01;76.10;;;33.30;;
19205;SDS011;59358;52.134;5.596;2023-11-22T10:16:28;74.25;;;34.03;;
19205;SDS011;59358;52.134;5.596;2023-11-22T10:18:55;64.25;;;32.47;;
19205;SDS011;59358;52.134;5.596;2023-11-22T10:21:25;66.80;;;32.35;;
19205;SDS011;59358;52.134;5.596;2023-11-22T10:23:55;58.95;;;30.60;;
19205;SDS011;59358;52.134;5.596;2023-11-22T10:26:22;72.88;;;28.83;;
19205;SDS011;59358;52.134;5.596;2023-11-22T10:28:50;52.95;;;26.80;;
19205;SDS011;59358;52.134;5.596;2023-11-22T10:31:17;51.25;;;26.38;;
19205;SDS011;59358;52.134;5.596;2023-11-22T10:33:44;47.25;;;24.85;;
19205;SDS011;59358;52.134;5.596;2023-11-22T10:36:11;43.53;;;25.45;;
19205;SDS011;59358;52.134;5.596;2023-11-22T10:38:41;42.83;;;23.27;;
19205;SDS011;59358;52.134;5.596;2023-11-22T10:41:12;45.78;;;23.63;;
19205;SDS011;59358;52.134;5.596;2023-11-22T10:43:39;39.28;;;22.38;;
19205;SDS011;59358;52.134;5.596;2023-11-22T10:46:07;36.13;;;21.95;;
19205;SDS011;59358;52.134;5.596;2023-11-22T10:48:35;37.15;;;21.92;;
19205;SDS011;59358;52.134;5.596;2023-11-22T10:51:03;36.22;;;20.02;;
19205;SDS011;59358;52.134;5.596;2023-11-22T10:53:31;38.00;;;20.45;;
19205;SDS011;59358;52.134;5.596;2023-11-22T10:56:05;34.58;;;20.52;;
19205;SDS011;59358;52.134;5.596;2023-11-22T10:58:40;32.95;;;19.00;;
19205;SDS011;59358;52.134;5.596;2023-11-22T11:01:12;29.75;;;18.02;;
19205;SDS011;59358;52.134;5.596;2023-11-22T11:03:41;27.58;;;17.23;;
19205;SDS011;59358;52.134;5.596;2023-11-22T11:06:16;31.20;;;19.10;;
19205;SDS011;59358;52.134;5.596;2023-11-22T11:08:48;29.85;;;17.98;;
19205;SDS011;59358;52.134;5.596;2023-11-22T11:11:17;30.35;;;18.25;;
19205;SDS011;59358;52.134;5.596;2023-11-22T11:13:44;26.67;;;17.48;;
19205;SDS011;59358;52.134;5.596;2023-11-22T11:16:13;25.42;;;16.50;;
19205;SDS011;59358;52.134;5.596;2023-11-22T11:18:40;26.40;;;16.42;;
19205;SDS011;59358;52.134;5.596;2023-11-22T11:21:08;24.20;;;15.50;;
19205;SDS011;59358;52.134;5.596;2023-11-22T11:23:37;25.65;;;16.70;;
19205;SDS011;59358;52.134;5.596;2023-11-22T11:26:14;25.77;;;16.77;;
19205;SDS011;59358;52.134;5.596;2023-11-22T11:28:44;24.83;;;15.25;;
19205;SDS011;59358;52.134;5.596;2023-11-22T11:31:13;23.45;;;14.73;;
19205;SDS011;59358;52.134;5.596;2023-11-22T11:33:53;24.55;;;14.98;;
19205;SDS011;59358;52.134;5.596;2023-11-22T11:36:22;23.00;;;14.35;;
19205;SDS011;59358;52.134;5.596;2023-11-22T11:38:50;22.58;;;14.32;;
19205;SDS011;59358;52.134;5.596;2023-11-22T11:41:18;25.65;;;14.40;;
19205;SDS011;59358;52.134;5.596;2023-11-22T11:43:46;21.48;;;13.95;;
19205;SDS011;59358;52.134;5.596;2023-11-22T11:46:14;30.33;;;14.20;;
19205;SDS011;59358;52.134;5.596;2023-11-22T11:48:42;20.65;;;13.23;;
19205;SDS011;59358;52.134;5.596;2023-11-22T11:51:09;21.27;;;13.10;;
19205;SDS011;59358;52.134;5.596;2023-11-22T11:53:39;21.63;;;12.95;;
19205;SDS011;59358;52.134;5.596;2023-11-22T11:56:06;22.55;;;13.75;;
19205;SDS011;59358;52.134;5.596;2023-11-22T11:58:34;23.65;;;14.57;;
19205;SDS011;59358;52.134;5.596;2023-11-22T12:01:04;22.83;;;14.23;;
19205;SDS011;59358;52.134;5.596;2023-11-22T12:03:31;25.23;;;14.63;;
19205;SDS011;59358;52.134;5.596;2023-11-22T12:05:58;21.73;;;13.75;;
19205;SDS011;59358;52.134;5.596;2023-11-22T12:08:26;24.70;;;13.80;;
19205;SDS011;59358;52.134;5.596;2023-11-22T12:10:55;24.48;;;14.95;;
19205;SDS011;59358;52.134;5.596;2023-11-22T12:13:24;24.40;;;13.05;;
19205;SDS011;59358;52.134;5.596;2023-11-22T12:15:52;23.58;;;14.48;;
19205;SDS011;59358;52.134;5.596;2023-11-22T12:18:21;22.95;;;15.02;;
19205;SDS011;59358;52.134;5.596;2023-11-22T12:20:54;24.77;;;14.77;;
19205;SDS011;59358;52.134;5.596;2023-11-22T12:23:22;22.48;;;14.27;;
19205;SDS011;59358;52.134;5.596;2023-11-22T12:25:54;24.13;;;14.40;;
19205;SDS011;59358;52.134;5.596;2023-11-22T12:28:22;24.67;;;15.88;;
19205;SDS011;59358;52.134;5.596;2023-11-22T12:30:50;23.40;;;14.98;;
19205;SDS011;59358;52.134;5.596;2023-11-22T12:33:17;20.40;;;13.30;;
19205;SDS011;59358;52.134;5.596;2023-11-22T12:35:46;19.75;;;13.23;;
19205;SDS011;59358;52.134;5.596;2023-11-22T12:38:14;19.05;;;12.80;;
19205;SDS011;59358;52.134;5.596;2023-11-22T12:40:44;20.98;;;13.35;;
19205;SDS011;59358;52.134;5.596;2023-11-22T12:43:12;20.98;;;13.52;;
19205;SDS011;59358;52.134;5.596;2023-11-22T12:45:40;19.73;;;12.55;;
19205;SDS011;59358;52.134;5.596;2023-11-22T12:48:21;19.83;;;12.80;;
19205;SDS011;59358;52.134;5.596;2023-11-22T12:50:51;21.20;;;13.95;;
19205;SDS011;59358;52.134;5.596;2023-11-22T12:53:18;19.70;;;13.30;;
19205;SDS011;59358;52.134;5.596;2023-11-22T12:55:47;23.80;;;14.63;;
19205;SDS011;59358;52.134;5.596;2023-11-22T12:58:15;25.30;;;15.85;;
19205;SDS011;59358;52.134;5.596;2023-11-22T13:00:43;32.05;;;20.17;;
19205;SDS011;59358;52.134;5.596;2023-11-22T13:03:11;26.50;;;16.33;;
19205;SDS011;59358;52.134;5.596;2023-11-22T13:05:38;30.40;;;18.77;;
19205;SDS011;59358;52.134;5.596;2023-11-22T13:08:09;29.67;;;18.23;;
19205;SDS011;59358;52.134;5.596;2023-11-22T13:10:38;35.17;;;18.67;;
19205;SDS011;59358;52.134;5.596;2023-11-22T13:13:05;33.63;;;19.05;;
19205;SDS011;59358;52.134;5.596;2023-11-22T13:15:34;36.50;;;19.05;;
19205;SDS011;59358;52.134;5.596;2023-11-22T13:18:01;32.22;;;18.88;;
19205;SDS011;59358;52.134;5.596;2023-11-22T13:20:28;37.97;;;20.40;;
19205;SDS011;59358;52.134;5.596;2023-11-22T13:22:55;37.38;;;21.15;;
19205;SDS011;59358;52.134;5.596;2023-11-22T13:25:24;45.75;;;21.85;;
19205;SDS011;59358;52.134;5.596;2023-11-22T13:27:51;39.72;;;21.38;;
19205;SDS011;59358;52.134;5.596;2023-11-22T13:30:19;43.33;;;22.80;;
19205;SDS011;59358;52.134;5.596;2023-11-22T13:32:48;38.38;;;20.50;;
19205;SDS011;59358;52.134;5.596;2023-11-22T13:35:15;45.45;;;22.70;;
19205;SDS011;59358;52.134;5.596;2023-11-22T13:37:42;43.22;;;22.85;;
19205;SDS011;59358;52.134;5.596;2023-11-22T13:40:10;45.67;;;23.77;;
19205;SDS011;59358;52.134;5.596;2023-11-22T13:42:41;45.05;;;23.17;;
19205;SDS011;59358;52.134;5.596;2023-11-22T13:45:09;44.90;;;24.52;;
19205;SDS011;59358;52.134;5.596;2023-11-22T13:47:40;43.22;;;23.55;;
19205;SDS011;59358;52.134;5.596;2023-11-22T13:50:07;37.67;;;21.73;;
19205;SDS011;59358;52.134;5.596;2023-11-22T13:52:34;39.70;;;22.33;;
19205;SDS011;59358;52.134;5.596;2023-11-22T13:55:01;41.95;;;22.95;;
19205;SDS011;59358;52.134;5.596;2023-11-22T13:57:33;42.35;;;23.40;;
19205;SDS011;59358;52.134;5.596;2023-11-22T14:00:01;39.15;;;21.52;;
19205;SDS011;59358;52.134;5.596;2023-11-22T14:02:32;39.00;;;22.92;;
19205;SDS011;59358;52.134;5.596;2023-11-22T14:04:59;44.20;;;24.63;;
19205;SDS011;59358;52.134;5.596;2023-11-22T14:07:26;41.10;;;23.05;;
19205;SDS011;59358;52.134;5.596;2023-11-22T14:09:53;45.10;;;24.50;;
19205;SDS011;59358;52.134;5.596;2023-11-22T14:12:20;40.15;;;23.00;;
19205;SDS011;59358;52.134;5.596;2023-11-22T14:14:46;40.97;;;23.80;;
19205;SDS011;59358;52.134;5.596;2023-11-22T14:17:15;42.78;;;24.33;;
19205;SDS011;59358;52.134;5.596;2023-11-22T14:19:45;43.30;;;24.05;;
19205;SDS011;59358;52.134;5.596;2023-11-22T14:22:12;39.63;;;23.42;;
19205;SDS011;59358;52.134;5.596;2023-11-22T14:24:40;39.35;;;22.40;;